createdAt,value
2018-08-11T00:00:34.629Z,17.80
2018-08-11T00:03:03.856Z,18.20
2018-08-11T00:05:33.119Z,18.00
2018-08-11T00:08:02.451Z,17.40
2018-08-11T00:10:31.684Z,17.40
2018-08-11T00:13:00.949Z,17.30
2018-08-11T00:15:30.253Z,17.60
2018-08-11T00:20:29.604Z,17.70
2018-08-11T00:22:58.824Z,17.30
2018-08-11T00:25:28.076Z,17.30
2018-08-11T00:27:57.309Z,17.20
2018-08-11T00:30:26.560Z,17.70
2018-08-11T00:35:24.834Z,17.60
2018-08-11T00:42:58.633Z,17.60
2018-08-11T00:45:27.834Z,17.90
2018-08-11T00:47:57.107Z,17.70
2018-08-11T00:50:30.542Z,17.70
2018-08-11T00:52:59.853Z,17.80
2018-08-11T00:57:58.261Z,18.20
2018-08-11T01:00:27.496Z,18.00
2018-08-11T01:02:56.756Z,17.90
2018-08-11T01:05:26.058Z,18.30
2018-08-11T01:07:55.789Z,18.30
2018-08-11T01:10:25.040Z,18.30
2018-08-11T01:12:54.239Z,17.70
2018-08-11T01:15:23.853Z,17.90
2018-08-11T01:17:53.256Z,18.00
2018-08-11T01:20:22.574Z,18.30
2018-08-11T01:22:51.774Z,17.60
2018-08-11T01:27:50.032Z,17.80
2018-08-11T01:30:21.698Z,18.00
2018-08-11T01:32:50.984Z,18.00
2018-08-11T01:37:49.241Z,18.30
2018-08-11T01:42:49.083Z,18.00
2018-08-11T01:45:18.779Z,17.90
2018-08-11T01:47:48.088Z,18.30
2018-08-11T01:52:47.460Z,18.00
2018-08-11T01:55:17.942Z,17.50
2018-08-11T02:00:17.349Z,17.60
2018-08-11T02:02:46.577Z,17.70
2018-08-11T02:05:15.815Z,18.00
2018-08-11T02:07:45.597Z,17.90
2018-08-11T02:10:19.075Z,18.10
2018-08-11T02:12:48.800Z,18.20
2018-08-11T02:17:47.144Z,17.70
2018-08-11T02:20:17.594Z,18.40
2018-08-11T02:22:47.821Z,18.10
2018-08-11T02:25:17.149Z,17.90
2018-08-11T02:27:46.375Z,18.20
2018-08-11T02:30:16.916Z,18.80
2018-08-11T02:35:15.534Z,18.10
2018-08-11T02:37:51.579Z,18.20
2018-08-11T02:40:20.831Z,17.90
2018-08-11T02:42:50.090Z,17.80
2018-08-11T02:45:19.412Z,17.90
2018-08-11T02:47:48.676Z,18.30
2018-08-11T02:50:17.969Z,18.10
2018-08-11T02:52:47.358Z,18.00
2018-08-11T02:57:45.636Z,18.20
2018-08-11T03:02:43.934Z,17.80
2018-08-11T03:05:13.136Z,17.80
2018-08-11T03:07:42.405Z,18.00
2018-08-11T03:10:12.418Z,17.80
2018-08-11T03:12:42.161Z,18.00
2018-08-11T03:15:12.793Z,18.00
2018-08-11T03:20:13.390Z,18.20
2018-08-11T03:22:43.213Z,17.30
2018-08-11T03:25:12.461Z,18.00
2018-08-11T03:27:41.679Z,17.30
2018-08-11T03:30:10.945Z,18.00
2018-08-11T03:32:40.222Z,17.80
2018-08-11T03:35:09.444Z,17.90
2018-08-11T03:37:38.686Z,17.70
2018-08-11T03:40:09.919Z,17.80
2018-08-11T03:42:39.516Z,17.70
2018-08-11T03:45:08.776Z,17.80
2018-08-11T03:47:38.108Z,17.90
2018-08-11T03:50:07.729Z,17.40
2018-08-11T03:52:37.291Z,17.40
2018-08-11T03:55:06.825Z,17.60
2018-08-11T03:57:36.031Z,17.20
2018-08-11T04:02:37.214Z,17.70
2018-08-11T04:05:06.497Z,17.70
2018-08-11T04:07:35.716Z,17.60
2018-08-11T04:10:05.694Z,17.80
2018-08-11T04:12:34.950Z,17.70
2018-08-11T04:17:41.484Z,17.80
2018-08-11T04:20:11.802Z,18.20
2018-08-11T04:22:41.023Z,17.80
2018-08-11T04:27:39.426Z,17.90
2018-08-11T04:30:10.459Z,18.20
2018-08-11T04:35:09.331Z,18.30
2018-08-11T04:37:38.536Z,18.50
2018-08-11T04:40:07.779Z,18.60
2018-08-11T04:42:37.000Z,18.40
2018-08-11T04:45:06.986Z,18.50
2018-08-11T04:47:36.260Z,18.20
2018-08-11T04:50:05.884Z,18.20
2018-08-11T04:52:35.200Z,18.50
2018-08-11T04:55:04.730Z,18.10
2018-08-11T04:57:34.030Z,18.00
2018-08-11T05:00:03.354Z,18.50
2018-08-11T05:02:32.621Z,18.10
2018-08-11T05:05:01.819Z,18.20
2018-08-11T05:07:31.084Z,18.00
2018-08-11T05:10:00.320Z,18.00
2018-08-11T05:14:58.503Z,18.10
2018-08-11T05:22:26.014Z,18.60
2018-08-11T05:24:55.249Z,18.50
2018-08-11T05:29:53.513Z,19.00
2018-08-11T05:34:51.881Z,19.50
2018-08-11T05:37:21.147Z,19.90
2018-08-11T05:39:50.497Z,19.80
2018-08-11T05:42:19.741Z,19.80
2018-08-11T05:44:49.065Z,19.90
2018-08-11T05:47:18.341Z,20.10
2018-08-11T05:49:47.594Z,20.00
2018-08-11T05:52:16.852Z,20.20
2018-08-11T05:54:46.062Z,20.50
2018-08-11T05:59:44.226Z,21.20
2018-08-11T06:02:13.434Z,21.20
2018-08-11T06:04:42.630Z,21.40
2018-08-11T06:07:11.890Z,21.00
2018-08-11T06:09:41.101Z,21.20
2018-08-11T06:12:10.365Z,21.20
2018-08-11T06:14:39.633Z,21.10
2018-08-11T06:17:08.929Z,21.00
2018-08-11T06:19:38.107Z,21.40
2018-08-11T06:22:07.431Z,21.00
2018-08-11T06:24:36.763Z,21.00
2018-08-11T06:27:06.182Z,21.20
2018-08-11T06:29:35.393Z,21.40
2018-08-11T06:32:04.706Z,21.50
2018-08-11T06:34:33.986Z,21.40
2018-08-11T06:37:03.194Z,21.50
2018-08-11T06:39:32.453Z,21.50
2018-08-11T06:46:59.809Z,21.70
2018-08-11T06:56:55.949Z,21.90
2018-08-11T06:59:25.185Z,22.20
2018-08-11T07:04:23.339Z,22.50
2018-08-11T07:06:52.569Z,23.30
2018-08-11T07:09:21.858Z,23.30
2018-08-11T07:16:49.029Z,24.10
2018-08-11T07:19:18.242Z,24.60
2018-08-11T07:21:47.837Z,24.70
2018-08-11T07:24:17.082Z,24.70
2018-08-11T07:26:46.321Z,24.30
2018-08-11T07:29:15.553Z,24.40
2018-08-11T07:34:13.774Z,24.30
2018-08-11T07:39:12.081Z,23.90
2018-08-11T07:41:41.333Z,23.80
2018-08-11T07:44:10.533Z,24.00
2018-08-11T07:46:39.789Z,24.40
2018-08-11T07:49:09.150Z,24.00
2018-08-11T07:51:38.351Z,24.20
2018-08-11T07:56:36.710Z,24.40
2018-08-11T07:59:06.070Z,24.10
2018-08-11T08:01:35.510Z,24.40
2018-08-11T08:04:04.872Z,24.10
2018-08-11T08:09:03.229Z,24.30
2018-08-11T08:11:32.488Z,24.00
2018-08-11T08:14:01.763Z,24.20
2018-08-11T08:16:31.041Z,24.00
2018-08-11T08:21:29.374Z,23.60
2018-08-11T08:28:56.718Z,23.80
2018-08-11T08:33:55.091Z,24.00
2018-08-11T08:36:24.258Z,23.70
2018-08-11T08:38:53.538Z,23.10
2018-08-11T08:41:22.717Z,23.70
2018-08-11T08:43:51.973Z,23.80
2018-08-11T08:48:50.502Z,23.90
2018-08-11T08:51:19.703Z,23.60
2018-08-11T08:56:17.907Z,23.80
2018-08-11T09:01:16.169Z,23.70
2018-08-11T09:03:45.401Z,23.50
2018-08-11T09:06:14.642Z,23.70
2018-08-11T09:16:10.910Z,23.40
2018-08-11T09:26:08.074Z,23.20
2018-08-11T09:28:37.379Z,23.80
2018-08-11T09:33:35.654Z,23.20
2018-08-11T09:36:04.914Z,23.80
2018-08-11T09:38:34.219Z,23.80
2018-08-11T09:41:03.471Z,23.70
2018-08-11T09:43:32.756Z,23.80
2018-08-11T09:46:02.099Z,23.60
2018-08-11T09:48:31.442Z,24.00
2018-08-11T09:53:29.734Z,24.20
2018-08-11T09:55:59.045Z,24.10
2018-08-11T09:58:28.658Z,24.40
2018-08-11T10:10:58.453Z,24.50
2018-08-11T10:13:27.627Z,24.40
2018-08-11T10:15:56.848Z,24.30
2018-08-11T10:18:26.065Z,24.00
2018-08-11T10:25:53.489Z,23.40
2018-08-11T10:28:22.878Z,23.90
2018-08-11T10:30:52.235Z,23.50
2018-08-11T10:33:21.487Z,23.50
2018-08-11T10:35:50.815Z,23.70
2018-08-11T10:38:20.034Z,23.20
2018-08-11T10:43:18.360Z,23.40
2018-08-11T10:45:47.643Z,23.90
2018-08-11T10:48:16.938Z,23.90
2018-08-11T10:50:46.332Z,23.50
2018-08-11T10:53:15.602Z,23.80
2018-08-11T10:55:44.800Z,23.60
2018-08-11T11:00:43.093Z,23.70
2018-08-11T11:03:12.462Z,23.50
2018-08-11T11:05:41.688Z,24.20
2018-08-11T11:08:10.922Z,23.40
2018-08-11T11:10:40.215Z,24.00
2018-08-11T11:13:09.462Z,24.20
2018-08-11T11:15:38.865Z,23.90
2018-08-11T11:18:08.255Z,24.00
2018-08-11T11:20:37.590Z,23.70
2018-08-11T11:23:06.854Z,23.70
2018-08-11T11:25:36.137Z,23.60
2018-08-11T11:30:34.453Z,23.40
2018-08-11T11:33:03.687Z,23.50
2018-08-11T11:35:32.943Z,23.30
2018-08-11T11:40:31.258Z,23.10
2018-08-11T11:43:00.490Z,23.40
2018-08-11T11:45:29.797Z,23.20
2018-08-11T11:47:59.035Z,23.30
2018-08-11T11:50:28.326Z,23.10
2018-08-11T11:52:57.594Z,23.20
2018-08-11T11:57:55.939Z,23.10
2018-08-11T12:00:25.224Z,23.10
2018-08-11T12:05:23.873Z,23.00
2018-08-11T12:07:53.071Z,23.30
2018-08-11T12:10:22.391Z,23.20
2018-08-11T12:12:51.672Z,23.10
2018-08-11T12:15:20.967Z,23.20
2018-08-11T12:17:50.214Z,23.10
2018-08-11T12:20:19.442Z,23.10
2018-08-11T12:25:17.798Z,23.20
2018-08-11T12:27:48.005Z,23.70
2018-08-11T12:32:46.231Z,23.10
2018-08-11T12:37:44.686Z,23.20
2018-08-11T12:40:13.974Z,23.10
2018-08-11T12:42:43.212Z,23.00
2018-08-11T12:45:12.388Z,23.10
2018-08-11T12:47:41.679Z,23.00
2018-08-11T12:50:10.957Z,23.10
2018-08-11T12:52:40.236Z,22.90
2018-08-11T12:55:09.455Z,23.10
2018-08-11T13:00:09.173Z,22.80
2018-08-11T13:02:38.638Z,23.30
2018-08-11T13:05:07.889Z,23.40
2018-08-11T13:07:37.982Z,23.10
2018-08-11T13:12:36.437Z,23.20
2018-08-11T13:15:06.855Z,23.50
2018-08-11T13:20:06.949Z,23.30
2018-08-11T13:22:36.289Z,23.50
2018-08-11T13:25:05.613Z,23.10
2018-08-11T13:30:04.368Z,23.50
2018-08-11T13:40:00.657Z,23.20
2018-08-11T13:42:30.015Z,23.60
2018-08-11T13:44:59.342Z,23.40
2018-08-11T13:47:28.604Z,23.20
2018-08-11T13:49:57.920Z,23.30
2018-08-11T13:57:25.156Z,23.30
2018-08-11T13:59:54.357Z,23.20
2018-08-11T14:02:23.574Z,23.30
2018-08-11T14:04:52.797Z,23.00
2018-08-11T14:07:22.074Z,23.30
2018-08-11T14:12:20.408Z,23.30
2018-08-11T14:17:18.743Z,23.20
2018-08-11T14:19:47.978Z,23.40
2018-08-11T14:22:17.186Z,23.40
2018-08-11T14:24:46.474Z,23.20
2018-08-11T14:27:15.690Z,23.10
2018-08-11T14:32:14.157Z,23.00
2018-08-11T14:34:43.429Z,23.20
2018-08-11T14:37:12.706Z,23.30
2018-08-11T14:39:41.896Z,23.20
2018-08-11T14:42:11.108Z,23.30
2018-08-11T14:44:40.314Z,23.20
2018-08-11T14:47:09.604Z,23.30
2018-08-11T14:49:38.827Z,23.00
2018-08-11T14:52:08.100Z,23.30
2018-08-11T14:54:37.374Z,23.30
2018-08-11T14:57:06.879Z,23.30
2018-08-11T15:02:05.198Z,23.20
2018-08-11T15:04:34.454Z,23.10
2018-08-11T15:07:03.732Z,23.40
2018-08-11T15:12:01.898Z,23.20
2018-08-11T15:17:00.198Z,23.30
2018-08-11T15:19:29.420Z,23.50
2018-08-11T15:29:25.621Z,22.50
2018-08-11T15:36:52.833Z,23.00
2018-08-11T15:39:22.106Z,23.00
2018-08-11T15:41:51.397Z,23.00
2018-08-11T15:44:20.587Z,23.10
2018-08-11T15:46:52.593Z,23.00
2018-08-11T15:51:50.907Z,22.90
2018-08-11T15:54:21.325Z,22.90
2018-08-11T15:56:50.505Z,22.70
2018-08-11T15:59:19.734Z,22.90
2018-08-11T16:04:18.037Z,23.20
2018-08-11T16:06:47.509Z,23.00
2018-08-11T16:09:16.874Z,22.80
2018-08-11T16:11:46.235Z,22.70
2018-08-11T16:16:44.650Z,22.70
2018-08-11T16:19:13.875Z,22.60
2018-08-11T16:24:12.174Z,22.80
2018-08-11T16:31:39.531Z,22.90
2018-08-11T16:36:37.781Z,22.60
2018-08-11T16:44:07.656Z,22.40
2018-08-11T16:46:36.970Z,22.70
2018-08-11T16:49:06.276Z,22.30
2018-08-11T16:51:35.447Z,22.50
2018-08-11T16:54:04.708Z,22.50
2018-08-11T16:56:33.929Z,22.80
2018-08-11T16:59:03.284Z,22.40
2018-08-11T17:01:32.538Z,22.00
2018-08-11T17:04:01.828Z,22.30
2018-08-11T17:06:31.067Z,22.30
2018-08-11T17:09:00.302Z,22.30
2018-08-11T17:11:29.587Z,22.30
2018-08-11T17:13:58.846Z,22.00
2018-08-11T17:16:28.116Z,22.00
2018-08-11T17:18:57.391Z,22.10
2018-08-11T17:23:55.634Z,22.10
2018-08-11T17:28:53.926Z,21.90
2018-08-11T17:31:23.135Z,21.70
2018-08-11T17:36:21.425Z,21.70
2018-08-11T17:41:19.934Z,21.70
2018-08-11T17:43:49.248Z,21.60
2018-08-11T17:46:18.546Z,21.80
2018-08-11T17:48:47.776Z,21.90
2018-08-11T17:53:46.025Z,21.80
2018-08-11T17:56:15.261Z,21.60
2018-08-11T18:01:13.501Z,21.70
2018-08-11T18:06:11.807Z,21.70
2018-08-11T18:08:41.040Z,21.40
2018-08-11T18:11:10.328Z,21.50
2018-08-11T18:13:39.579Z,21.30
2018-08-11T18:18:37.962Z,21.30
2018-08-11T18:21:07.288Z,21.20
2018-08-11T18:23:36.512Z,21.10
2018-08-11T18:28:34.831Z,21.00
2018-08-11T18:31:04.121Z,21.10
2018-08-11T18:33:33.370Z,20.70
2018-08-11T18:36:02.598Z,20.70
2018-08-11T18:38:31.842Z,21.10
2018-08-11T18:41:01.146Z,21.00
2018-08-11T18:45:59.547Z,20.80
2018-08-11T18:48:28.941Z,20.30
2018-08-11T18:50:58.157Z,21.30
2018-08-11T18:53:27.471Z,20.40
2018-08-11T18:55:56.723Z,20.70
2018-08-11T19:00:55.045Z,20.20
2018-08-11T19:05:53.484Z,20.60
2018-08-11T19:08:22.734Z,20.00
2018-08-11T19:10:52.033Z,20.80
2018-08-11T19:13:21.352Z,20.20
2018-08-11T19:20:48.767Z,19.70
2018-08-11T19:23:18.005Z,19.60
2018-08-11T19:25:47.405Z,19.40
2018-08-11T19:28:16.615Z,19.40
2018-08-11T19:30:45.814Z,19.70
2018-08-11T19:33:15.088Z,19.70
2018-08-11T19:35:44.305Z,19.20
2018-08-11T19:40:42.609Z,19.50
2018-08-11T19:43:11.853Z,18.80
2018-08-11T19:50:39.100Z,19.30
2018-08-11T19:55:37.287Z,19.10
2018-08-11T20:03:04.563Z,18.80
2018-08-11T20:05:33.873Z,18.80
2018-08-11T20:08:03.219Z,18.50
2018-08-11T20:13:01.515Z,18.50
2018-08-11T20:15:30.810Z,18.20
2018-08-11T20:18:00.122Z,18.00
2018-08-11T20:20:29.423Z,18.00
2018-08-11T20:25:27.893Z,17.70
2018-08-11T20:27:57.115Z,18.30
2018-08-11T20:30:26.354Z,18.00
2018-08-11T20:35:24.581Z,18.00
2018-08-11T20:40:22.836Z,17.90
2018-08-11T20:42:52.115Z,17.80
2018-08-11T20:45:21.337Z,17.30
2018-08-11T20:52:48.601Z,17.40
2018-08-11T20:55:17.873Z,17.20
2018-08-11T20:57:47.133Z,17.10
2018-08-11T21:00:16.374Z,17.30
2018-08-11T21:02:45.603Z,17.10
2018-08-11T21:05:15.102Z,17.20
2018-08-11T21:07:44.350Z,17.70
2018-08-11T21:10:15.380Z,17.50
2018-08-11T21:12:45.119Z,16.90
2018-08-11T21:15:14.452Z,16.90
2018-08-11T21:22:42.620Z,17.30
2018-08-11T21:25:12.420Z,16.90
2018-08-11T21:27:41.654Z,16.90
2018-08-11T21:32:42.381Z,16.90
2018-08-11T21:37:40.753Z,16.60
2018-08-11T21:40:12.909Z,17.10
2018-08-11T21:42:42.553Z,17.10
2018-08-11T21:47:41.889Z,16.60
2018-08-11T21:50:11.449Z,16.70
2018-08-11T21:52:40.693Z,17.10
2018-08-11T21:55:10.309Z,16.50
2018-08-11T22:03:10.522Z,16.70
2018-08-11T22:05:39.771Z,17.00
2018-08-11T22:08:09.009Z,16.50
2018-08-11T22:13:07.351Z,16.90
2018-08-11T22:15:36.727Z,16.60
2018-08-11T22:18:06.059Z,16.10
2018-08-11T22:20:35.290Z,16.30
2018-08-11T22:23:04.562Z,16.30
2018-08-11T22:25:33.909Z,16.60
2018-08-11T22:28:03.174Z,15.90
2018-08-11T22:30:32.430Z,16.30
2018-08-11T22:35:30.681Z,15.80
2018-08-11T22:37:59.864Z,16.30
2018-08-11T22:40:29.091Z,16.30
2018-08-11T22:42:58.309Z,16.40
2018-08-11T22:45:27.542Z,16.10
2018-08-11T22:47:56.766Z,16.10
2018-08-11T22:50:25.973Z,16.00
2018-08-11T22:52:55.226Z,16.30
2018-08-11T22:57:53.380Z,16.00
2018-08-11T23:02:52.019Z,16.00
2018-08-11T23:07:50.988Z,15.50
2018-08-11T23:10:20.209Z,15.10
2018-08-11T23:12:49.444Z,15.40
2018-08-11T23:15:19.907Z,16.00
2018-08-11T23:17:50.263Z,15.90
2018-08-11T23:20:19.484Z,15.80
2018-08-11T23:22:48.689Z,15.80
2018-08-11T23:25:17.914Z,15.90
2018-08-11T23:27:47.104Z,15.20
2018-08-11T23:30:17.558Z,15.70
2018-08-11T23:32:46.787Z,15.10
2018-08-11T23:37:45.302Z,15.00
2018-08-11T23:40:14.483Z,15.50
2018-08-11T23:42:43.734Z,15.70
2018-08-11T23:45:15.139Z,15.30
2018-08-11T23:47:44.449Z,14.80
2018-08-11T23:50:14.572Z,15.40
2018-08-11T23:52:44.635Z,15.10
2018-08-11T23:55:14.911Z,15.60
2018-08-11T23:57:44.125Z,15.00
